sensor_id;sensor_type;location;lat;lon;timestamp;temperature;humidity
18753;DHT22;9505;50.882;5.350;2023-04-24T00:02:04;9.60;99.90
18753;DHT22;9505;50.882;5.350;2023-04-24T00:04:32;9.60;99.90
18753;DHT22;9505;50.882;5.350;2023-04-24T00:06:57;9.60;99.90
18753;DHT22;9505;50.882;5.350;2023-04-24T00:09:25;9.70;99.90
18753;DHT22;9505;50.882;5.350;2023-04-24T00:11:52;9.60;99.90
18753;DHT22;9505;50.882;5.350;2023-04-24T00:14:19;9.60;99.90
18753;DHT22;9505;50.882;5.350;2023-04-24T00:16:44;9.70;99.90
18753;DHT22;9505;50.882;5.350;2023-04-24T00:19:10;9.60;99.90
18753;DHT22;9505;50.882;5.350;2023-04-24T00:21:36;9.50;99.90
18753;DHT22;9505;50.882;5.350;2023-04-24T00:24:03;9.50;99.90
18753;DHT22;9505;50.882;5.350;2023-04-24T00:26:29;9.60;99.90
18753;DHT22;9505;50.882;5.350;2023-04-24T00:28:54;9.60;99.90
18753;DHT22;9505;50.882;5.350;2023-04-24T00:31:20;9.60;99.90
18753;DHT22;9505;50.882;5.350;2023-04-24T00:33:46;9.60;99.90
18753;DHT22;9505;50.882;5.350;2023-04-24T00:36:11;9.60;99.90
18753;DHT22;9505;50.882;5.350;2023-04-24T00:38:37;9.70;99.90
18753;DHT22;9505;50.882;5.350;2023-04-24T00:41:03;9.60;99.90
18753;DHT22;9505;50.882;5.350;2023-04-24T00:43:28;9.50;99.90
18753;DHT22;9505;50.882;5.350;2023-04-24T00:45:54;9.50;99.90
18753;DHT22;9505;50.882;5.350;2023-04-24T00:48:20;9.50;99.90
18753;DHT22;9505;50.882;5.350;2023-04-24T00:50:46;9.50;99.90
18753;DHT22;9505;50.882;5.350;2023-04-24T00:53:12;9.60;99.90
18753;DHT22;9505;50.882;5.350;2023-04-24T00:55:37;9.60;99.90
18753;DHT22;9505;50.882;5.350;2023-04-24T00:58:04;9.70;99.90
18753;DHT22;9505;50.882;5.350;2023-04-24T01:00:30;9.60;99.90
18753;DHT22;9505;50.882;5.350;2023-04-24T01:02:58;9.50;99.90
18753;DHT22;9505;50.882;5.350;2023-04-24T01:05:24;9.60;99.90
18753;DHT22;9505;50.882;5.350;2023-04-24T01:07:50;9.50;99.90
18753;DHT22;9505;50.882;5.350;2023-04-24T01:10:16;9.50;99.90
18753;DHT22;9505;50.882;5.350;2023-04-24T01:12:43;9.50;99.90
18753;DHT22;9505;50.882;5.350;2023-04-24T01:15:09;9.50;99.90
18753;DHT22;9505;50.882;5.350;2023-04-24T01:17:35;9.60;99.90
18753;DHT22;9505;50.882;5.350;2023-04-24T01:20:01;9.60;99.90
18753;DHT22;9505;50.882;5.350;2023-04-24T01:22:29;9.50;99.90
18753;DHT22;9505;50.882;5.350;2023-04-24T01:24:55;9.50;99.90
18753;DHT22;9505;50.882;5.350;2023-04-24T01:27:20;9.50;99.90
18753;DHT22;9505;50.882;5.350;2023-04-24T01:29:46;9.60;99.90
18753;DHT22;9505;50.882;5.350;2023-04-24T01:32:14;9.60;99.90
18753;DHT22;9505;50.882;5.350;2023-04-24T01:34:40;9.60;99.90
18753;DHT22;9505;50.882;5.350;2023-04-24T01:37:06;9.50;99.90
18753;DHT22;9505;50.882;5.350;2023-04-24T01:39:32;9.50;99.90
18753;DHT22;9505;50.882;5.350;2023-04-24T01:41:59;9.40;99.90
18753;DHT22;9505;50.882;5.350;2023-04-24T01:44:26;9.40;99.90
18753;DHT22;9505;50.882;5.350;2023-04-24T01:46:52;9.30;99.90
18753;DHT22;9505;50.882;5.350;2023-04-24T01:49:19;9.30;99.90
18753;DHT22;9505;50.882;5.350;2023-04-24T01:51:45;9.50;99.90
18753;DHT22;9505;50.882;5.350;2023-04-24T01:54:11;9.40;99.90
18753;DHT22;9505;50.882;5.350;2023-04-24T01:56:42;9.50;99.90
18753;DHT22;9505;50.882;5.350;2023-04-24T01:59:12;9.50;99.90
18753;DHT22;9505;50.882;5.350;2023-04-24T02:01:38;9.40;99.90
18753;DHT22;9505;50.882;5.350;2023-04-24T02:04:05;9.40;99.90
18753;DHT22;9505;50.882;5.350;2023-04-24T02:06:31;9.30;99.90
18753;DHT22;9505;50.882;5.350;2023-04-24T02:09:00;9.20;99.90
18753;DHT22;9505;50.882;5.350;2023-04-24T02:11:26;9.20;99.90
18753;DHT22;9505;50.882;5.350;2023-04-24T02:13:52;9.20;99.90
18753;DHT22;9505;50.882;5.350;2023-04-24T02:16:18;9.20;99.90
18753;DHT22;9505;50.882;5.350;2023-04-24T02:18:44;9.10;99.90
18753;DHT22;9505;50.882;5.350;2023-04-24T02:21:10;9.10;99.90
18753;DHT22;9505;50.882;5.350;2023-04-24T02:23:36;9.10;99.90
18753;DHT22;9505;50.882;5.350;2023-04-24T02:26:01;9.00;99.90
18753;DHT22;9505;50.882;5.350;2023-04-24T02:28:27;9.10;99.90
18753;DHT22;9505;50.882;5.350;2023-04-24T02:30:53;9.00;99.90
18753;DHT22;9505;50.882;5.350;2023-04-24T02:33:19;9.00;99.90
18753;DHT22;9505;50.882;5.350;2023-04-24T02:35:45;9.00;99.90
18753;DHT22;9505;50.882;5.350;2023-04-24T02:38:10;9.00;99.90
18753;DHT22;9505;50.882;5.350;2023-04-24T02:40:36;9.00;99.90
18753;DHT22;9505;50.882;5.350;2023-04-24T02:43:02;9.00;99.90
18753;DHT22;9505;50.882;5.350;2023-04-24T02:45:27;9.00;99.90
18753;DHT22;9505;50.882;5.350;2023-04-24T02:47:53;9.00;99.90
18753;DHT22;9505;50.882;5.350;2023-04-24T02:50:19;9.00;99.90
18753;DHT22;9505;50.882;5.350;2023-04-24T02:52:44;8.90;99.90
18753;DHT22;9505;50.882;5.350;2023-04-24T02:55:10;8.90;99.90
18753;DHT22;9505;50.882;5.350;2023-04-24T02:57:36;8.80;99.90
18753;DHT22;9505;50.882;5.350;2023-04-24T03:00:02;8.80;99.90
18753;DHT22;9505;50.882;5.350;2023-04-24T03:02:28;8.70;99.90
18753;DHT22;9505;50.882;5.350;2023-04-24T03:04:54;8.60;99.90
18753;DHT22;9505;50.882;5.350;2023-04-24T03:07:20;8.60;99.90
18753;DHT22;9505;50.882;5.350;2023-04-24T03:09:46;8.60;99.90
18753;DHT22;9505;50.882;5.350;2023-04-24T03:12:12;8.50;99.90
18753;DHT22;9505;50.882;5.350;2023-04-24T03:14:38;8.50;99.90
18753;DHT22;9505;50.882;5.350;2023-04-24T03:17:03;8.50;99.90
18753;DHT22;9505;50.882;5.350;2023-04-24T03:19:29;8.50;99.90
18753;DHT22;9505;50.882;5.350;2023-04-24T03:21:55;8.50;99.90
18753;DHT22;9505;50.882;5.350;2023-04-24T03:24:21;8.50;99.90
18753;DHT22;9505;50.882;5.350;2023-04-24T03:26:47;8.60;99.90
18753;DHT22;9505;50.882;5.350;2023-04-24T03:29:13;8.50;99.90
18753;DHT22;9505;50.882;5.350;2023-04-24T03:31:39;8.50;99.90
18753;DHT22;9505;50.882;5.350;2023-04-24T03:34:04;8.50;99.90
18753;DHT22;9505;50.882;5.350;2023-04-24T03:36:30;8.50;99.90
18753;DHT22;9505;50.882;5.350;2023-04-24T03:38:56;8.50;99.90
18753;DHT22;9505;50.882;5.350;2023-04-24T03:41:22;8.50;99.90
18753;DHT22;9505;50.882;5.350;2023-04-24T03:43:48;8.50;99.90
18753;DHT22;9505;50.882;5.350;2023-04-24T03:46:13;8.50;99.90
18753;DHT22;9505;50.882;5.350;2023-04-24T03:48:39;8.50;99.90
18753;DHT22;9505;50.882;5.350;2023-04-24T03:51:05;8.50;99.90
18753;DHT22;9505;50.882;5.350;2023-04-24T03:53:30;8.50;99.90
18753;DHT22;9505;50.882;5.350;2023-04-24T03:55:56;8.60;99.90
18753;DHT22;9505;50.882;5.350;2023-04-24T03:58:22;8.50;99.90
18753;DHT22;9505;50.882;5.350;2023-04-24T04:00:47;8.50;99.90
18753;DHT22;9505;50.882;5.350;2023-04-24T04:03:13;8.50;99.90
18753;DHT22;9505;50.882;5.350;2023-04-24T04:05:40;8.60;99.90
18753;DHT22;9505;50.882;5.350;2023-04-24T04:08:05;8.50;99.90
18753;DHT22;9505;50.882;5.350;2023-04-24T04:10:31;8.40;99.90
18753;DHT22;9505;50.882;5.350;2023-04-24T04:12:57;8.40;99.90
18753;DHT22;9505;50.882;5.350;2023-04-24T04:15:22;8.40;99.90
18753;DHT22;9505;50.882;5.350;2023-04-24T04:17:48;8.50;99.90
18753;DHT22;9505;50.882;5.350;2023-04-24T04:20:14;8.50;99.90
18753;DHT22;9505;50.882;5.350;2023-04-24T04:22:39;8.50;99.90
18753;DHT22;9505;50.882;5.350;2023-04-24T04:25:05;8.60;99.90
18753;DHT22;9505;50.882;5.350;2023-04-24T04:27:32;8.60;99.90
18753;DHT22;9505;50.882;5.350;2023-04-24T04:30:01;8.50;99.90
18753;DHT22;9505;50.882;5.350;2023-04-24T04:32:33;8.50;99.90
18753;DHT22;9505;50.882;5.350;2023-04-24T04:34:59;8.50;99.90
18753;DHT22;9505;50.882;5.350;2023-04-24T04:37:32;8.40;99.90
18753;DHT22;9505;50.882;5.350;2023-04-24T04:39:59;8.20;99.90
18753;DHT22;9505;50.882;5.350;2023-04-24T04:42:25;8.20;99.90
18753;DHT22;9505;50.882;5.350;2023-04-24T04:44:52;8.20;99.90
18753;DHT22;9505;50.882;5.350;2023-04-24T04:47:20;8.10;99.90
18753;DHT22;9505;50.882;5.350;2023-04-24T04:49:48;8.10;99.90
18753;DHT22;9505;50.882;5.350;2023-04-24T04:52:14;8.10;99.90
18753;DHT22;9505;50.882;5.350;2023-04-24T04:54:40;8.10;99.90
18753;DHT22;9505;50.882;5.350;2023-04-24T04:57:06;8.00;99.90
18753;DHT22;9505;50.882;5.350;2023-04-24T04:59:31;8.00;99.90
18753;DHT22;9505;50.882;5.350;2023-04-24T05:01:57;8.00;99.90
18753;DHT22;9505;50.882;5.350;2023-04-24T05:04:23;8.00;99.90
18753;DHT22;9505;50.882;5.350;2023-04-24T05:06:48;8.10;99.90
18753;DHT22;9505;50.882;5.350;2023-04-24T05:09:16;8.10;99.90
18753;DHT22;9505;50.882;5.350;2023-04-24T05:11:42;8.10;99.90
18753;DHT22;9505;50.882;5.350;2023-04-24T05:14:07;8.20;99.90
18753;DHT22;9505;50.882;5.350;2023-04-24T05:16:33;8.20;99.90
18753;DHT22;9505;50.882;5.350;2023-04-24T05:18:59;8.10;99.90
18753;DHT22;9505;50.882;5.350;2023-04-24T05:21:24;8.20;99.90
18753;DHT22;9505;50.882;5.350;2023-04-24T05:23:50;8.20;99.90
18753;DHT22;9505;50.882;5.350;2023-04-24T05:26:16;8.20;99.90
18753;DHT22;9505;50.882;5.350;2023-04-24T05:28:43;8.20;99.90
18753;DHT22;9505;50.882;5.350;2023-04-24T05:31:09;8.10;99.90
18753;DHT22;9505;50.882;5.350;2023-04-24T05:33:35;8.10;99.90
18753;DHT22;9505;50.882;5.350;2023-04-24T05:36:00;8.10;99.90
18753;DHT22;9505;50.882;5.350;2023-04-24T05:38:26;8.20;99.90
18753;DHT22;9505;50.882;5.350;2023-04-24T05:40:51;8.20;99.90
18753;DHT22;9505;50.882;5.350;2023-04-24T05:43:17;8.20;99.90
18753;DHT22;9505;50.882;5.350;2023-04-24T05:45:43;8.20;99.90
18753;DHT22;9505;50.882;5.350;2023-04-24T05:48:08;8.30;99.90
18753;DHT22;9505;50.882;5.350;2023-04-24T05:50:34;8.20;99.90
18753;DHT22;9505;50.882;5.350;2023-04-24T05:52:59;8.20;99.90
18753;DHT22;9505;50.882;5.350;2023-04-24T05:55:27;8.10;99.90
18753;DHT22;9505;50.882;5.350;2023-04-24T05:57:53;8.10;99.90
18753;DHT22;9505;50.882;5.350;2023-04-24T06:00:19;8.10;99.90
18753;DHT22;9505;50.882;5.350;2023-04-24T06:02:46;8.00;99.90
18753;DHT22;9505;50.882;5.350;2023-04-24T06:05:11;8.00;99.90
18753;DHT22;9505;50.882;5.350;2023-04-24T06:07:37;8.00;99.90
18753;DHT22;9505;50.882;5.350;2023-04-24T06:10:03;8.00;99.90
18753;DHT22;9505;50.882;5.350;2023-04-24T06:12:29;7.90;99.90
18753;DHT22;9505;50.882;5.350;2023-04-24T06:14:54;7.90;99.90
18753;DHT22;9505;50.882;5.350;2023-04-24T06:17:21;7.80;99.90
18753;DHT22;9505;50.882;5.350;2023-04-24T06:19:46;7.80;99.90
18753;DHT22;9505;50.882;5.350;2023-04-24T06:22:12;7.80;99.90
18753;DHT22;9505;50.882;5.350;2023-04-24T06:24:39;7.80;99.90
18753;DHT22;9505;50.882;5.350;2023-04-24T06:27:05;7.90;99.90
18753;DHT22;9505;50.882;5.350;2023-04-24T06:29:32;7.90;99.90
18753;DHT22;9505;50.882;5.350;2023-04-24T06:31:58;8.00;99.90
18753;DHT22;9505;50.882;5.350;2023-04-24T06:34:23;8.00;99.90
18753;DHT22;9505;50.882;5.350;2023-04-24T06:36:49;8.00;99.90
18753;DHT22;9505;50.882;5.350;2023-04-24T06:39:15;7.90;99.90
18753;DHT22;9505;50.882;5.350;2023-04-24T06:41:40;7.80;99.90
18753;DHT22;9505;50.882;5.350;2023-04-24T06:44:06;7.70;99.90
18753;DHT22;9505;50.882;5.350;2023-04-24T06:46:31;7.80;99.90
18753;DHT22;9505;50.882;5.350;2023-04-24T06:48:57;7.90;99.90
18753;DHT22;9505;50.882;5.350;2023-04-24T06:51:23;7.80;99.90
18753;DHT22;9505;50.882;5.350;2023-04-24T06:53:50;7.80;99.90
18753;DHT22;9505;50.882;5.350;2023-04-24T06:56:16;7.80;99.90
18753;DHT22;9505;50.882;5.350;2023-04-24T06:58:42;7.80;99.90
18753;DHT22;9505;50.882;5.350;2023-04-24T07:01:08;7.80;99.90
18753;DHT22;9505;50.882;5.350;2023-04-24T07:03:34;7.80;99.90
18753;DHT22;9505;50.882;5.350;2023-04-24T07:06:00;7.80;99.90
18753;DHT22;9505;50.882;5.350;2023-04-24T07:08:26;7.80;99.90
18753;DHT22;9505;50.882;5.350;2023-04-24T07:10:51;7.90;99.90
18753;DHT22;9505;50.882;5.350;2023-04-24T07:13:17;7.90;99.90
18753;DHT22;9505;50.882;5.350;2023-04-24T07:15:43;8.00;99.90
18753;DHT22;9505;50.882;5.350;2023-04-24T07:18:09;8.10;99.90
18753;DHT22;9505;50.882;5.350;2023-04-24T07:20:35;8.10;99.90
18753;DHT22;9505;50.882;5.350;2023-04-24T07:23:00;8.10;99.90
18753;DHT22;9505;50.882;5.350;2023-04-24T07:25:26;8.20;99.90
18753;DHT22;9505;50.882;5.350;2023-04-24T07:27:52;8.20;99.90
18753;DHT22;9505;50.882;5.350;2023-04-24T07:30:18;8.30;99.90
18753;DHT22;9505;50.882;5.350;2023-04-24T07:32:44;8.30;99.90
18753;DHT22;9505;50.882;5.350;2023-04-24T07:35:09;8.40;99.90
18753;DHT22;9505;50.882;5.350;2023-04-24T07:37:35;8.30;99.90
18753;DHT22;9505;50.882;5.350;2023-04-24T07:40:01;8.30;99.90
18753;DHT22;9505;50.882;5.350;2023-04-24T07:42:28;8.20;99.90
18753;DHT22;9505;50.882;5.350;2023-04-24T07:44:55;8.30;99.90
18753;DHT22;9505;50.882;5.350;2023-04-24T07:47:21;8.30;99.90
18753;DHT22;9505;50.882;5.350;2023-04-24T07:49:47;8.30;99.90
18753;DHT22;9505;50.882;5.350;2023-04-24T07:52:13;8.30;99.90
18753;DHT22;9505;50.882;5.350;2023-04-24T07:54:38;8.20;99.90
18753;DHT22;9505;50.882;5.350;2023-04-24T07:57:04;8.20;99.90
18753;DHT22;9505;50.882;5.350;2023-04-24T07:59:31;8.30;99.90
18753;DHT22;9505;50.882;5.350;2023-04-24T08:01:57;8.40;99.90
18753;DHT22;9505;50.882;5.350;2023-04-24T08:04:23;8.30;99.90
18753;DHT22;9505;50.882;5.350;2023-04-24T08:06:48;8.30;99.90
18753;DHT22;9505;50.882;5.350;2023-04-24T08:09:14;8.20;99.90
18753;DHT22;9505;50.882;5.350;2023-04-24T08:11:40;8.20;99.90
18753;DHT22;9505;50.882;5.350;2023-04-24T08:14:05;8.30;99.90
18753;DHT22;9505;50.882;5.350;2023-04-24T08:16:32;8.30;99.90
18753;DHT22;9505;50.882;5.350;2023-04-24T08:18:58;8.40;99.90
18753;DHT22;9505;50.882;5.350;2023-04-24T08:21:24;8.50;99.90
18753;DHT22;9505;50.882;5.350;2023-04-24T08:23:51;8.60;99.90
18753;DHT22;9505;50.882;5.350;2023-04-24T08:26:17;8.50;99.90
18753;DHT22;9505;50.882;5.350;2023-04-24T08:28:43;8.50;99.90
18753;DHT22;9505;50.882;5.350;2023-04-24T08:31:08;8.60;99.90
18753;DHT22;9505;50.882;5.350;2023-04-24T08:33:34;8.70;99.90
18753;DHT22;9505;50.882;5.350;2023-04-24T08:36:02;8.90;99.90
18753;DHT22;9505;50.882;5.350;2023-04-24T08:38:27;8.90;99.90
18753;DHT22;9505;50.882;5.350;2023-04-24T08:40:53;9.10;99.90
18753;DHT22;9505;50.882;5.350;2023-04-24T08:43:21;9.20;99.90
18753;DHT22;9505;50.882;5.350;2023-04-24T08:45:47;9.40;99.90
18753;DHT22;9505;50.882;5.350;2023-04-24T08:48:13;9.70;99.90
18753;DHT22;9505;50.882;5.350;2023-04-24T08:50:40;9.70;99.90
18753;DHT22;9505;50.882;5.350;2023-04-24T08:53:08;9.50;99.90
18753;DHT22;9505;50.882;5.350;2023-04-24T08:55:35;9.40;99.90
18753;DHT22;9505;50.882;5.350;2023-04-24T08:58:01;9.40;99.90
18753;DHT22;9505;50.882;5.350;2023-04-24T09:00:27;9.10;99.90
18753;DHT22;9505;50.882;5.350;2023-04-24T09:02:53;9.00;99.90
18753;DHT22;9505;50.882;5.350;2023-04-24T09:05:21;8.90;99.90
18753;DHT22;9505;50.882;5.350;2023-04-24T09:07:55;8.90;99.90
18753;DHT22;9505;50.882;5.350;2023-04-24T09:10:23;8.70;99.90
18753;DHT22;9505;50.882;5.350;2023-04-24T09:12:50;8.70;99.90
18753;DHT22;9505;50.882;5.350;2023-04-24T09:15:17;8.80;99.90
18753;DHT22;9505;50.882;5.350;2023-04-24T09:17:43;9.20;99.90
18753;DHT22;9505;50.882;5.350;2023-04-24T09:20:09;9.60;99.90
18753;DHT22;9505;50.882;5.350;2023-04-24T09:22:37;9.50;99.90
18753;DHT22;9505;50.882;5.350;2023-04-24T09:25:07;9.40;99.90
18753;DHT22;9505;50.882;5.350;2023-04-24T09:27:34;9.50;99.90
18753;DHT22;9505;50.882;5.350;2023-04-24T09:30:01;9.90;99.90
18753;DHT22;9505;50.882;5.350;2023-04-24T09:32:27;10.20;99.90
18753;DHT22;9505;50.882;5.350;2023-04-24T09:37:44;10.50;99.90
18753;DHT22;9505;50.882;5.350;2023-04-24T09:40:18;10.50;99.90
18753;DHT22;9505;50.882;5.350;2023-04-24T09:43:03;10.80;99.90
18753;DHT22;9505;50.882;5.350;2023-04-24T09:45:35;11.00;99.90
18753;DHT22;9505;50.882;5.350;2023-04-24T09:48:01;10.90;99.90
18753;DHT22;9505;50.882;5.350;2023-04-24T09:50:27;10.80;99.90
18753;DHT22;9505;50.882;5.350;2023-04-24T09:52:57;11.30;99.90
18753;DHT22;9505;50.882;5.350;2023-04-24T09:55:23;11.30;99.90
18753;DHT22;9505;50.882;5.350;2023-04-24T09:57:50;11.30;99.90
18753;DHT22;9505;50.882;5.350;2023-04-24T10:00:23;11.00;99.90
18753;DHT22;9505;50.882;5.350;2023-04-24T10:02:59;10.90;99.90
18753;DHT22;9505;50.882;5.350;2023-04-24T10:05:28;10.70;99.90
18753;DHT22;9505;50.882;5.350;2023-04-24T10:08:04;10.70;99.90
18753;DHT22;9505;50.882;5.350;2023-04-24T10:10:31;10.70;99.90
18753;DHT22;9505;50.882;5.350;2023-04-24T10:12:57;10.30;99.90
18753;DHT22;9505;50.882;5.350;2023-04-24T10:15:24;10.20;99.90
18753;DHT22;9505;50.882;5.350;2023-04-24T10:17:50;10.10;99.90
18753;DHT22;9505;50.882;5.350;2023-04-24T10:20:24;10.50;99.90
18753;DHT22;9505;50.882;5.350;2023-04-24T10:22:52;11.40;99.90
18753;DHT22;9505;50.882;5.350;2023-04-24T10:25:23;12.00;99.90
18753;DHT22;9505;50.882;5.350;2023-04-24T10:27:50;12.00;99.90
18753;DHT22;9505;50.882;5.350;2023-04-24T10:30:18;12.10;99.90
18753;DHT22;9505;50.882;5.350;2023-04-24T10:32:43;12.00;99.90
18753;DHT22;9505;50.882;5.350;2023-04-24T10:35:12;12.00;99.90
18753;DHT22;9505;50.882;5.350;2023-04-24T10:37:41;11.80;99.90
18753;DHT22;9505;50.882;5.350;2023-04-24T10:40:09;11.60;99.90
18753;DHT22;9505;50.882;5.350;2023-04-24T10:42:35;11.50;99.90
18753;DHT22;9505;50.882;5.350;2023-04-24T10:45:06;11.60;99.90
18753;DHT22;9505;50.882;5.350;2023-04-24T10:47:40;11.50;99.90
18753;DHT22;9505;50.882;5.350;2023-04-24T10:50:12;11.40;99.90
18753;DHT22;9505;50.882;5.350;2023-04-24T10:52:45;11.50;99.90
18753;DHT22;9505;50.882;5.350;2023-04-24T10:55:13;11.80;99.90
18753;DHT22;9505;50.882;5.350;2023-04-24T10:58:03;12.10;99.90
18753;DHT22;9505;50.882;5.350;2023-04-24T11:00:29;12.40;99.90
18753;DHT22;9505;50.882;5.350;2023-04-24T11:02:55;12.50;99.90
18753;DHT22;9505;50.882;5.350;2023-04-24T11:05:22;12.60;99.90
18753;DHT22;9505;50.882;5.350;2023-04-24T11:08:13;12.50;99.90
18753;DHT22;9505;50.882;5.350;2023-04-24T11:10:43;12.30;99.90
18753;DHT22;9505;50.882;5.350;2023-04-24T11:13:09;11.90;99.90
18753;DHT22;9505;50.882;5.350;2023-04-24T11:15:34;11.70;99.90
18753;DHT22;9505;50.882;5.350;2023-04-24T11:18:00;11.70;99.90
18753;DHT22;9505;50.882;5.350;2023-04-24T11:20:26;11.50;99.90
18753;DHT22;9505;50.882;5.350;2023-04-24T11:22:54;11.60;99.90
18753;DHT22;9505;50.882;5.350;2023-04-24T11:25:21;11.80;99.90
18753;DHT22;9505;50.882;5.350;2023-04-24T11:27:48;11.90;99.90
18753;DHT22;9505;50.882;5.350;2023-04-24T11:30:19;12.20;99.90
18753;DHT22;9505;50.882;5.350;2023-04-24T11:32:49;12.30;99.90
18753;DHT22;9505;50.882;5.350;2023-04-24T11:35:20;12.30;99.90
18753;DHT22;9505;50.882;5.350;2023-04-24T11:37:50;12.20;99.90
18753;DHT22;9505;50.882;5.350;2023-04-24T11:40:18;12.10;99.90
18753;DHT22;9505;50.882;5.350;2023-04-24T11:42:47;12.00;99.90
18753;DHT22;9505;50.882;5.350;2023-04-24T11:45:17;12.20;99.90
18753;DHT22;9505;50.882;5.350;2023-04-24T11:47:44;12.50;99.90
18753;DHT22;9505;50.882;5.350;2023-04-24T11:50:15;12.40;99.90
18753;DHT22;9505;50.882;5.350;2023-04-24T11:52:46;12.40;99.90
18753;DHT22;9505;50.882;5.350;2023-04-24T11:57:55;12.30;99.90
18753;DHT22;9505;50.882;5.350;2023-04-24T12:00:27;12.00;99.90
18753;DHT22;9505;50.882;5.350;2023-04-24T12:03:04;11.90;99.90
18753;DHT22;9505;50.882;5.350;2023-04-24T12:05:31;12.20;99.90
18753;DHT22;9505;50.882;5.350;2023-04-24T12:07:57;12.20;99.90
18753;DHT22;9505;50.882;5.350;2023-04-24T12:10:24;12.40;99.90
18753;DHT22;9505;50.882;5.350;2023-04-24T12:12:50;12.60;99.90
18753;DHT22;9505;50.882;5.350;2023-04-24T12:15:18;12.40;99.90
18753;DHT22;9505;50.882;5.350;2023-04-24T12:17:45;12.50;99.90
18753;DHT22;9505;50.882;5.350;2023-04-24T12:20:11;12.70;99.90
18753;DHT22;9505;50.882;5.350;2023-04-24T12:22:53;13.00;99.90
18753;DHT22;9505;50.882;5.350;2023-04-24T12:25:21;12.50;99.90
18753;DHT22;9505;50.882;5.350;2023-04-24T12:30:35;11.70;99.90
18753;DHT22;9505;50.882;5.350;2023-04-24T12:33:02;11.70;99.90
18753;DHT22;9505;50.882;5.350;2023-04-24T12:35:30;12.00;99.90
18753;DHT22;9505;50.882;5.350;2023-04-24T12:38:12;12.50;99.90
18753;DHT22;9505;50.882;5.350;2023-04-24T12:40:39;13.20;99.90
18753;DHT22;9505;50.882;5.350;2023-04-24T12:45:39;13.50;99.90
18753;DHT22;9505;50.882;5.350;2023-04-24T12:48:05;14.20;99.90
18753;DHT22;9505;50.882;5.350;2023-04-24T12:50:30;14.50;99.90
18753;DHT22;9505;50.882;5.350;2023-04-24T12:52:56;14.80;99.90
18753;DHT22;9505;50.882;5.350;2023-04-24T12:55:22;15.00;99.90
18753;DHT22;9505;50.882;5.350;2023-04-24T12:57:47;14.40;99.90
18753;DHT22;9505;50.882;5.350;2023-04-24T13:00:14;13.50;99.90
18753;DHT22;9505;50.882;5.350;2023-04-24T13:02:39;13.30;99.90
18753;DHT22;9505;50.882;5.350;2023-04-24T13:05:05;13.20;99.90
18753;DHT22;9505;50.882;5.350;2023-04-24T13:07:31;13.10;99.90
18753;DHT22;9505;50.882;5.350;2023-04-24T13:09:57;13.40;99.90
18753;DHT22;9505;50.882;5.350;2023-04-24T13:12:23;14.40;99.90
18753;DHT22;9505;50.882;5.350;2023-04-24T13:14:52;14.40;99.90
18753;DHT22;9505;50.882;5.350;2023-04-24T13:17:18;14.10;99.90
18753;DHT22;9505;50.882;5.350;2023-04-24T13:19:44;14.20;99.90
18753;DHT22;9505;50.882;5.350;2023-04-24T13:22:11;13.70;99.90
18753;DHT22;9505;50.882;5.350;2023-04-24T13:24:38;13.20;99.90
18753;DHT22;9505;50.882;5.350;2023-04-24T13:27:05;13.20;99.90
18753;DHT22;9505;50.882;5.350;2023-04-24T13:29:30;13.40;99.90
18753;DHT22;9505;50.882;5.350;2023-04-24T13:31:56;13.40;99.90
18753;DHT22;9505;50.882;5.350;2023-04-24T13:34:24;13.40;99.90
18753;DHT22;9505;50.882;5.350;2023-04-24T13:36:51;13.30;99.90
18753;DHT22;9505;50.882;5.350;2023-04-24T13:39:17;13.30;99.90
18753;DHT22;9505;50.882;5.350;2023-04-24T13:41:43;13.50;99.90
18753;DHT22;9505;50.882;5.350;2023-04-24T13:44:09;13.90;99.90
18753;DHT22;9505;50.882;5.350;2023-04-24T13:46:34;13.90;99.90
18753;DHT22;9505;50.882;5.350;2023-04-24T13:49:01;13.40;99.90
18753;DHT22;9505;50.882;5.350;2023-04-24T13:51:29;13.50;99.90
18753;DHT22;9505;50.882;5.350;2023-04-24T13:53:54;14.00;99.90
18753;DHT22;9505;50.882;5.350;2023-04-24T13:56:20;14.10;99.90
18753;DHT22;9505;50.882;5.350;2023-04-24T13:58:47;14.20;99.90
18753;DHT22;9505;50.882;5.350;2023-04-24T14:01:13;14.40;99.90
18753;DHT22;9505;50.882;5.350;2023-04-24T14:03:40;14.70;99.90
18753;DHT22;9505;50.882;5.350;2023-04-24T14:06:06;15.10;99.90
18753;DHT22;9505;50.882;5.350;2023-04-24T14:08:32;15.40;99.90
18753;DHT22;9505;50.882;5.350;2023-04-24T14:10:57;15.00;99.90
18753;DHT22;9505;50.882;5.350;2023-04-24T14:13:23;15.20;99.90
18753;DHT22;9505;50.882;5.350;2023-04-24T14:15:49;15.40;99.90
18753;DHT22;9505;50.882;5.350;2023-04-24T14:18:15;15.00;99.90
18753;DHT22;9505;50.882;5.350;2023-04-24T14:20:41;14.40;99.90
18753;DHT22;9505;50.882;5.350;2023-04-24T14:23:06;14.20;99.90
18753;DHT22;9505;50.882;5.350;2023-04-24T14:25:32;14.60;99.90
18753;DHT22;9505;50.882;5.350;2023-04-24T14:27:58;14.30;99.90
18753;DHT22;9505;50.882;5.350;2023-04-24T14:30:24;14.00;99.90
18753;DHT22;9505;50.882;5.350;2023-04-24T14:32:49;14.00;99.90
18753;DHT22;9505;50.882;5.350;2023-04-24T14:35:15;14.30;99.90
18753;DHT22;9505;50.882;5.350;2023-04-24T14:37:41;14.80;99.90
18753;DHT22;9505;50.882;5.350;2023-04-24T14:40:08;15.30;99.90
18753;DHT22;9505;50.882;5.350;2023-04-24T14:42:35;15.20;99.90
18753;DHT22;9505;50.882;5.350;2023-04-24T14:45:01;15.10;99.90
18753;DHT22;9505;50.882;5.350;2023-04-24T14:47:27;14.90;99.90
18753;DHT22;9505;50.882;5.350;2023-04-24T14:49:53;14.90;99.90
18753;DHT22;9505;50.882;5.350;2023-04-24T14:52:19;14.70;99.90
18753;DHT22;9505;50.882;5.350;2023-04-24T14:54:45;14.40;99.90
18753;DHT22;9505;50.882;5.350;2023-04-24T14:57:11;14.30;99.90
18753;DHT22;9505;50.882;5.350;2023-04-24T14:59:36;14.00;99.90
18753;DHT22;9505;50.882;5.350;2023-04-24T15:02:02;13.60;99.90
18753;DHT22;9505;50.882;5.350;2023-04-24T15:04:28;13.60;99.90
18753;DHT22;9505;50.882;5.350;2023-04-24T15:06:54;13.50;99.90
18753;DHT22;9505;50.882;5.350;2023-04-24T15:09:21;13.30;99.90
18753;DHT22;9505;50.882;5.350;2023-04-24T15:11:48;13.50;99.90
18753;DHT22;9505;50.882;5.350;2023-04-24T15:14:15;13.60;99.90
18753;DHT22;9505;50.882;5.350;2023-04-24T15:16:41;13.60;99.90
18753;DHT22;9505;50.882;5.350;2023-04-24T15:19:06;13.50;99.90
18753;DHT22;9505;50.882;5.350;2023-04-24T15:21:32;13.40;99.90
18753;DHT22;9505;50.882;5.350;2023-04-24T15:23:58;13.50;99.90
18753;DHT22;9505;50.882;5.350;2023-04-24T15:26:24;13.30;99.90
18753;DHT22;9505;50.882;5.350;2023-04-24T15:28:51;13.00;99.90
18753;DHT22;9505;50.882;5.350;2023-04-24T15:31:17;13.00;99.90
18753;DHT22;9505;50.882;5.350;2023-04-24T15:33:43;13.20;99.90
18753;DHT22;9505;50.882;5.350;2023-04-24T15:36:09;13.20;99.90
18753;DHT22;9505;50.882;5.350;2023-04-24T15:38:36;13.40;99.90
18753;DHT22;9505;50.882;5.350;2023-04-24T15:41:02;13.70;99.90
18753;DHT22;9505;50.882;5.350;2023-04-24T15:43:27;13.60;99.90
18753;DHT22;9505;50.882;5.350;2023-04-24T15:45:56;13.50;99.90
18753;DHT22;9505;50.882;5.350;2023-04-24T15:48:22;13.30;99.90
18753;DHT22;9505;50.882;5.350;2023-04-24T15:50:48;12.90;99.90
18753;DHT22;9505;50.882;5.350;2023-04-24T15:53:14;13.00;99.90
18753;DHT22;9505;50.882;5.350;2023-04-24T15:55:49;13.10;99.90
18753;DHT22;9505;50.882;5.350;2023-04-24T15:58:16;13.10;99.90
18753;DHT22;9505;50.882;5.350;2023-04-24T16:00:41;13.10;99.90
18753;DHT22;9505;50.882;5.350;2023-04-24T16:03:07;13.10;99.90